sensor_id;sensor_type;location;lat;lon;timestamp;pressure;altitude;pressure_sealevel;temperature;humidity
55315;BME280;41619;42.816;23.226;2023-01-05T00:01:11;96362.72;;;4.17;80.68
55315;BME280;41619;42.816;23.226;2023-01-05T00:03:38;96360.63;;;4.14;80.14
55315;BME280;41619;42.816;23.226;2023-01-05T00:06:10;96365.31;;;4.09;80.33
55315;BME280;41619;42.816;23.226;2023-01-05T00:08:36;96364.03;;;4.06;80.32
55315;BME280;41619;42.816;23.226;2023-01-05T00:11:08;96362.72;;;4.04;80.37
55315;BME280;41619;42.816;23.226;2023-01-05T00:13:52;96373.06;;;4.02;80.30
55315;BME280;41619;42.816;23.226;2023-01-05T00:16:36;96374.47;;;3.99;79.95
55315;BME280;41619;42.816;23.226;2023-01-05T00:19:20;96374.97;;;4.01;79.92
55315;BME280;41619;42.816;23.226;2023-01-05T00:22:31;96364.81;;;4.07;80.07
55315;BME280;41619;42.816;23.226;2023-01-05T00:25:10;96361.31;;;4.06;79.85
55315;BME280;41619;42.816;23.226;2023-01-05T00:27:36;96360.81;;;4.04;79.68
55315;BME280;41619;42.816;23.226;2023-01-05T00:30:03;96365.44;;;4.04;79.53
55315;BME280;41619;42.816;23.226;2023-01-05T00:32:28;96364.31;;;4.05;79.62
55315;BME280;41619;42.816;23.226;2023-01-05T00:34:55;96362.41;;;4.05;79.75
55315;BME280;41619;42.816;23.226;2023-01-05T00:37:22;96369.44;;;4.06;79.61
55315;BME280;41619;42.816;23.226;2023-01-05T00:39:48;96361.00;;;4.08;79.87
55315;BME280;41619;42.816;23.226;2023-01-05T00:42:14;96364.53;;;4.08;79.78
55315;BME280;41619;42.816;23.226;2023-01-05T00:44:39;96359.91;;;4.09;80.10
55315;BME280;41619;42.816;23.226;2023-01-05T00:47:04;96362.03;;;4.12;79.82
55315;BME280;41619;42.816;23.226;2023-01-05T00:49:30;96359.03;;;4.13;79.67
55315;BME280;41619;42.816;23.226;2023-01-05T00:51:55;96356.00;;;4.15;79.92
55315;BME280;41619;42.816;23.226;2023-01-05T00:54:21;96358.13;;;4.18;80.13
55315;BME280;41619;42.816;23.226;2023-01-05T00:56:46;96360.81;;;4.18;80.16
55315;BME280;41619;42.816;23.226;2023-01-05T00:59:15;96360.22;;;4.21;80.07
55315;BME280;41619;42.816;23.226;2023-01-05T01:01:44;96358.81;;;4.23;80.25
55315;BME280;41619;42.816;23.226;2023-01-05T01:04:10;96353.56;;;4.27;79.71
55315;BME280;41619;42.816;23.226;2023-01-05T01:06:36;96356.19;;;4.32;79.76
55315;BME280;41619;42.816;23.226;2023-01-05T01:09:02;96355.59;;;4.35;79.76
55315;BME280;41619;42.816;23.226;2023-01-05T01:11:27;96344.94;;;4.39;80.19
55315;BME280;41619;42.816;23.226;2023-01-05T01:13:53;96345.13;;;4.42;79.85
55315;BME280;41619;42.816;23.226;2023-01-05T01:16:18;96346.16;;;4.46;79.93
55315;BME280;41619;42.816;23.226;2023-01-05T01:18:44;96331.97;;;4.49;79.92
55315;BME280;41619;42.816;23.226;2023-01-05T01:21:09;96330.56;;;4.52;80.08
55315;BME280;41619;42.816;23.226;2023-01-05T01:23:35;96326.63;;;4.58;80.25
55315;BME280;41619;42.816;23.226;2023-01-05T01:26:08;96318.38;;;4.63;80.05
55315;BME280;41619;42.816;23.226;2023-01-05T01:28:34;96320.69;;;4.70;80.24
55315;BME280;41619;42.816;23.226;2023-01-05T01:31:00;96315.13;;;4.75;80.10
55315;BME280;41619;42.816;23.226;2023-01-05T01:33:25;96314.19;;;4.79;80.36
55315;BME280;41619;42.816;23.226;2023-01-05T01:35:51;96314.38;;;4.83;80.53
55315;BME280;41619;42.816;23.226;2023-01-05T01:38:16;96300.22;;;4.86;80.19
55315;BME280;41619;42.816;23.226;2023-01-05T01:40:44;96291.47;;;4.89;80.12
55315;BME280;41619;42.816;23.226;2023-01-05T01:43:37;96294.69;;;4.91;80.32
55315;BME280;41619;42.816;23.226;2023-01-05T01:46:03;96294.38;;;4.93;79.94
55315;BME280;41619;42.816;23.226;2023-01-05T01:48:30;96287.50;;;4.95;79.95
55315;BME280;41619;42.816;23.226;2023-01-05T01:50:56;96280.19;;;4.96;79.81
55315;BME280;41619;42.816;23.226;2023-01-05T01:53:32;96287.22;;;4.97;79.53
55315;BME280;41619;42.816;23.226;2023-01-05T01:56:01;96279.56;;;4.99;80.01
55315;BME280;41619;42.816;23.226;2023-01-05T01:58:29;96276.53;;;5.00;80.65
55315;BME280;41619;42.816;23.226;2023-01-05T02:00:57;96277.34;;;5.01;80.42
55315;BME280;41619;42.816;23.226;2023-01-05T02:03:25;96277.06;;;5.02;80.47
55315;BME280;41619;42.816;23.226;2023-01-05T02:05:50;96272.44;;;5.03;80.32
55315;BME280;41619;42.816;23.226;2023-01-05T02:08:16;96263.19;;;5.04;80.13
55315;BME280;41619;42.816;23.226;2023-01-05T02:31:23;96246.59;;;5.05;80.40
55315;BME280;41619;42.816;23.226;2023-01-05T02:39:20;96244.34;;;5.07;80.12
55315;BME280;41619;42.816;23.226;2023-01-05T02:44:37;96250.59;;;5.08;80.05
55315;BME280;41619;42.816;23.226;2023-01-05T02:47:03;96247.88;;;5.08;80.11
55315;BME280;41619;42.816;23.226;2023-01-05T02:49:32;96246.28;;;5.07;79.91
55315;BME280;41619;42.816;23.226;2023-01-05T02:52:01;96243.56;;;5.07;80.40
55315;BME280;41619;42.816;23.226;2023-01-05T02:54:46;96239.25;;;5.06;80.02
55315;BME280;41619;42.816;23.226;2023-01-05T02:57:19;96228.06;;;5.07;79.88
55315;BME280;41619;42.816;23.226;2023-01-05T03:00:06;96221.84;;;5.07;80.51
55315;BME280;41619;42.816;23.226;2023-01-05T03:02:33;96221.53;;;5.08;80.47
55315;BME280;41619;42.816;23.226;2023-01-05T03:05:04;96204.47;;;5.08;80.33
55315;BME280;41619;42.816;23.226;2023-01-05T03:07:36;96208.78;;;5.09;79.56
55315;BME280;41619;42.816;23.226;2023-01-05T03:10:03;96196.81;;;5.10;79.84
55315;BME280;41619;42.816;23.226;2023-01-05T03:12:51;96204.63;;;5.11;79.65
55315;BME280;41619;42.816;23.226;2023-01-05T03:15:40;96196.50;;;5.11;80.19
55315;BME280;41619;42.816;23.226;2023-01-05T03:18:09;96193.78;;;5.11;80.37
55315;BME280;41619;42.816;23.226;2023-01-05T03:20:36;96198.09;;;5.12;80.22
55315;BME280;41619;42.816;23.226;2023-01-05T03:23:05;96189.94;;;5.12;80.08
55315;BME280;41619;42.816;23.226;2023-01-05T03:25:51;96189.31;;;5.15;79.82
55315;BME280;41619;42.816;23.226;2023-01-05T03:28:41;96187.72;;;5.14;80.06
55315;BME280;41619;42.816;23.226;2023-01-05T03:34:24;96179.09;;;5.12;79.94
55315;BME280;41619;42.816;23.226;2023-01-05T03:37:14;96188.84;;;5.13;79.90
55315;BME280;41619;42.816;23.226;2023-01-05T03:39:42;96171.28;;;5.11;80.38
55315;BME280;41619;42.816;23.226;2023-01-05T03:42:10;96168.88;;;5.09;79.91
55315;BME280;41619;42.816;23.226;2023-01-05T03:44:42;96179.72;;;5.09;79.99
55315;BME280;41619;42.816;23.226;2023-01-05T03:47:08;96176.22;;;5.09;79.86
55315;BME280;41619;42.816;23.226;2023-01-05T03:49:34;96182.75;;;5.08;79.85
55315;BME280;41619;42.816;23.226;2023-01-05T03:52:00;96174.63;;;5.08;80.27
55315;BME280;41619;42.816;23.226;2023-01-05T03:54:25;96174.63;;;5.08;80.32
55315;BME280;41619;42.816;23.226;2023-01-05T03:56:50;96174.63;;;5.08;79.89
55315;BME280;41619;42.816;23.226;2023-01-05T03:59:16;96172.69;;;5.08;80.20
55315;BME280;41619;42.816;23.226;2023-01-05T04:01:41;96171.91;;;5.08;80.35
55315;BME280;41619;42.816;23.226;2023-01-05T04:04:06;96171.28;;;5.11;80.37
55315;BME280;41619;42.816;23.226;2023-01-05T04:06:32;96159.00;;;5.13;79.69
55315;BME280;41619;42.816;23.226;2023-01-05T04:08:57;96162.03;;;5.12;80.03
55315;BME280;41619;42.816;23.226;2023-01-05T04:11:23;96162.03;;;5.12;80.08
55315;BME280;41619;42.816;23.226;2023-01-05T04:13:49;96165.53;;;5.12;80.11
55315;BME280;41619;42.816;23.226;2023-01-05T04:16:15;96160.91;;;5.13;80.32
55315;BME280;41619;42.816;23.226;2023-01-05T04:18:41;96158.19;;;5.13;79.75
55315;BME280;41619;42.816;23.226;2023-01-05T04:21:06;96157.38;;;5.12;80.22
55315;BME280;41619;42.816;23.226;2023-01-05T04:23:32;96151.47;;;5.10;79.76
55315;BME280;41619;42.816;23.226;2023-01-05T04:25:58;96155.63;;;5.08;80.38
55315;BME280;41619;42.816;23.226;2023-01-05T04:28:24;96155.63;;;5.08;79.76
55315;BME280;41619;42.816;23.226;2023-01-05T04:30:51;96166.97;;;5.10;80.25
55315;BME280;41619;42.816;23.226;2023-01-05T04:33:18;96159.63;;;5.10;80.42
55315;BME280;41619;42.816;23.226;2023-01-05T04:35:44;96159.31;;;5.12;79.62
55315;BME280;41619;42.816;23.226;2023-01-05T04:38:10;96161.69;;;5.13;80.38
55315;BME280;41619;42.816;23.226;2023-01-05T04:40:35;96163.63;;;5.13;80.23
55315;BME280;41619;42.816;23.226;2023-01-05T04:43:01;96157.06;;;5.14;80.08
55315;BME280;41619;42.816;23.226;2023-01-05T04:45:26;96161.06;;;5.16;79.78
55315;BME280;41619;42.816;23.226;2023-01-05T04:47:52;96156.94;;;5.19;80.12
55315;BME280;41619;42.816;23.226;2023-01-05T04:50:17;96156.94;;;5.19;80.22
55315;BME280;41619;42.816;23.226;2023-01-05T04:52:43;96154.72;;;5.21;80.12
55315;BME280;41619;42.816;23.226;2023-01-05T04:55:09;96151.69;;;5.23;79.64
55315;BME280;41619;42.816;23.226;2023-01-05T04:57:34;96154.41;;;5.23;80.04
55315;BME280;41619;42.816;23.226;2023-01-05T05:00:00;96159.84;;;5.23;79.79
55315;BME280;41619;42.816;23.226;2023-01-05T05:02:26;96164.94;;;5.24;79.94
55315;BME280;41619;42.816;23.226;2023-01-05T05:04:51;96165.75;;;5.25;79.85
55315;BME280;41619;42.816;23.226;2023-01-05T05:07:17;96160.00;;;5.26;79.81
55315;BME280;41619;42.816;23.226;2023-01-05T05:09:42;96155.06;;;5.28;79.74
55315;BME280;41619;42.816;23.226;2023-01-05T05:12:08;96158.56;;;5.29;79.72
55315;BME280;41619;42.816;23.226;2023-01-05T05:14:33;96155.06;;;5.28;79.61
55315;BME280;41619;42.816;23.226;2023-01-05T05:16:58;96157.47;;;5.30;79.52
55315;BME280;41619;42.816;23.226;2023-01-05T05:19:24;96159.84;;;5.31;80.12
55315;BME280;41619;42.816;23.226;2023-01-05T05:21:49;96154.75;;;5.30;79.47
55315;BME280;41619;42.816;23.226;2023-01-05T05:24:15;96149.31;;;5.30;79.54
55315;BME280;41619;42.816;23.226;2023-01-05T05:26:40;96151.22;;;5.29;79.72
55315;BME280;41619;42.816;23.226;2023-01-05T05:29:06;96146.91;;;5.28;79.50
55315;BME280;41619;42.816;23.226;2023-01-05T05:31:31;96151.88;;;5.26;79.66
55315;BME280;41619;42.816;23.226;2023-01-05T05:33:56;96145.63;;;5.26;79.53
55315;BME280;41619;42.816;23.226;2023-01-05T05:36:22;96147.88;;;5.24;79.72
55315;BME280;41619;42.816;23.226;2023-01-05T05:38:47;96143.56;;;5.23;79.24
55315;BME280;41619;42.816;23.226;2023-01-05T05:41:13;96141.97;;;5.22;79.42
55315;BME280;41619;42.816;23.226;2023-01-05T05:43:38;96139.25;;;5.22;79.68
55315;BME280;41619;42.816;23.226;2023-01-05T05:46:04;96135.72;;;5.21;79.76
55315;BME280;41619;42.816;23.226;2023-01-05T05:48:29;96129.78;;;5.19;79.33
55315;BME280;41619;42.816;23.226;2023-01-05T05:50:55;96125.78;;;5.16;80.13
55315;BME280;41619;42.816;23.226;2023-01-05T05:53:20;96120.69;;;5.15;80.00
55315;BME280;41619;42.816;23.226;2023-01-05T05:55:49;96120.53;;;5.11;79.67
55315;BME280;41619;42.816;23.226;2023-01-05T05:58:18;96114.44;;;5.06;80.20
55315;BME280;41619;42.816;23.226;2023-01-05T06:00:45;96115.06;;;5.03;79.61
55315;BME280;41619;42.816;23.226;2023-01-05T06:03:10;96105.13;;;4.98;79.59
55315;BME280;41619;42.816;23.226;2023-01-05T06:05:36;96108.47;;;4.95;79.86
55315;BME280;41619;42.816;23.226;2023-01-05T06:08:01;96105.91;;;4.90;80.37
55315;BME280;41619;42.816;23.226;2023-01-05T06:10:27;96108.78;;;4.85;80.37
55315;BME280;41619;42.816;23.226;2023-01-05T06:12:53;96107.78;;;4.81;80.50
55315;BME280;41619;42.816;23.226;2023-01-05T06:15:19;96113.50;;;4.79;79.69
55315;BME280;41619;42.816;23.226;2023-01-05T06:17:45;96113.50;;;4.79;80.27
55315;BME280;41619;42.816;23.226;2023-01-05T06:20:13;96120.53;;;4.80;80.23
55315;BME280;41619;42.816;23.226;2023-01-05T06:22:39;96124.53;;;4.83;80.41
55315;BME280;41619;42.816;23.226;2023-01-05T06:25:05;96118.19;;;4.88;80.73
55315;BME280;41619;42.816;23.226;2023-01-05T06:27:30;96123.16;;;4.94;80.10
55315;BME280;41619;42.816;23.226;2023-01-05T06:29:56;96131.63;;;5.01;80.20
55315;BME280;41619;42.816;23.226;2023-01-05T06:32:21;96123.56;;;5.10;80.38
55315;BME280;41619;42.816;23.226;2023-01-05T06:34:47;96123.88;;;5.17;80.42
55315;BME280;41619;42.816;23.226;2023-01-05T06:37:12;96118.50;;;5.26;79.93
55315;BME280;41619;42.816;23.226;2023-01-05T06:39:37;96115.47;;;5.36;79.71
55315;BME280;41619;42.816;23.226;2023-01-05T06:42:03;96116.19;;;5.59;79.50
55315;BME280;41619;42.816;23.226;2023-01-05T06:44:28;96107.59;;;5.83;79.19
55315;BME280;41619;42.816;23.226;2023-01-05T06:46:54;96121.53;;;6.16;79.58
55315;BME280;41619;42.816;23.226;2023-01-05T06:49:19;96103.69;;;6.70;78.93
55315;BME280;41619;42.816;23.226;2023-01-05T06:51:44;96099.78;;;6.88;77.57
55315;BME280;41619;42.816;23.226;2023-01-05T06:54:10;96094.59;;;7.04;77.04
55315;BME280;41619;42.816;23.226;2023-01-05T06:56:35;96093.81;;;7.33;76.62
55315;BME280;41619;42.816;23.226;2023-01-05T06:59:01;96084.06;;;7.32;75.84
55315;BME280;41619;42.816;23.226;2023-01-05T07:01:26;96082.84;;;7.50;76.28
55315;BME280;41619;42.816;23.226;2023-01-05T07:03:51;96087.63;;;7.95;75.64
55315;BME280;41619;42.816;23.226;2023-01-05T07:06:17;96091.75;;;8.43;74.77
55315;BME280;41619;42.816;23.226;2023-01-05T07:08:42;96086.56;;;9.44;74.15
55315;BME280;41619;42.816;23.226;2023-01-05T07:11:08;96082.00;;;10.13;72.45
55315;BME280;41619;42.816;23.226;2023-01-05T07:13:33;96085.97;;;10.55;70.73
55315;BME280;41619;42.816;23.226;2023-01-05T07:15:58;96078.72;;;11.54;69.51
55315;BME280;41619;42.816;23.226;2023-01-05T07:18:24;96083.94;;;12.91;67.57
55315;BME280;41619;42.816;23.226;2023-01-05T07:20:49;96067.28;;;14.32;64.65
55315;BME280;41619;42.816;23.226;2023-01-05T07:23:14;96063.31;;;15.40;61.91
55315;BME280;41619;42.816;23.226;2023-01-05T07:25:40;96064.41;;;16.46;59.54
55315;BME280;41619;42.816;23.226;2023-01-05T07:28:05;96067.41;;;17.24;57.37
55315;BME280;41619;42.816;23.226;2023-01-05T07:30:31;96060.72;;;17.75;56.22
55315;BME280;41619;42.816;23.226;2023-01-05T07:32:57;96059.06;;;18.20;55.27
55315;BME280;41619;42.816;23.226;2023-01-05T07:35:23;96055.81;;;18.50;54.47
55315;BME280;41619;42.816;23.226;2023-01-05T07:37:48;96053.69;;;18.86;53.67
55315;BME280;41619;42.816;23.226;2023-01-05T07:40:14;96051.94;;;19.17;52.75
55315;BME280;41619;42.816;23.226;2023-01-05T07:42:39;96050.41;;;19.64;51.43
55315;BME280;41619;42.816;23.226;2023-01-05T07:45:05;96050.78;;;20.08;50.19
55315;BME280;41619;42.816;23.226;2023-01-05T07:47:30;96045.28;;;20.42;49.57
55315;BME280;41619;42.816;23.226;2023-01-05T07:49:56;96038.91;;;20.75;48.35
55315;BME280;41619;42.816;23.226;2023-01-05T07:52:21;96037.06;;;20.96;47.44
55315;BME280;41619;42.816;23.226;2023-01-05T07:54:47;96035.50;;;21.22;46.77
55315;BME280;41619;42.816;23.226;2023-01-05T07:57:12;96038.34;;;21.45;45.86
55315;BME280;41619;42.816;23.226;2023-01-05T07:59:38;96036.78;;;21.44;45.06
55315;BME280;41619;42.816;23.226;2023-01-05T08:02:03;96033.72;;;21.35;44.85
55315;BME280;41619;42.816;23.226;2023-01-05T08:04:28;96033.53;;;20.92;44.29
55315;BME280;41619;42.816;23.226;2023-01-05T08:06:55;96034.47;;;20.51;44.50
55315;BME280;41619;42.816;23.226;2023-01-05T08:09:21;96030.94;;;20.47;44.09
55315;BME280;41619;42.816;23.226;2023-01-05T08:12:05;96029.09;;;20.67;43.32
55315;BME280;41619;42.816;23.226;2023-01-05T08:14:30;96037.16;;;20.89;41.24
55315;BME280;41619;42.816;23.226;2023-01-05T08:16:56;96031.81;;;20.37;40.85
55315;BME280;41619;42.816;23.226;2023-01-05T08:19:21;96032.75;;;19.37;41.36
55315;BME280;41619;42.816;23.226;2023-01-05T08:21:47;96027.78;;;18.27;42.63
55315;BME280;41619;42.816;23.226;2023-01-05T08:24:12;96038.56;;;17.39;43.50
55315;BME280;41619;42.816;23.226;2023-01-05T08:26:37;96032.44;;;16.52;44.36
55315;BME280;41619;42.816;23.226;2023-01-05T08:29:03;96040.31;;;15.66;45.44
55315;BME280;41619;42.816;23.226;2023-01-05T08:31:30;96032.22;;;14.99;45.96
55315;BME280;41619;42.816;23.226;2023-01-05T08:34:01;96037.09;;;14.42;46.99
55315;BME280;41619;42.816;23.226;2023-01-05T08:36:27;96033.47;;;14.01;47.39
55315;BME280;41619;42.816;23.226;2023-01-05T08:38:53;96025.44;;;13.62;47.41
55315;BME280;41619;42.816;23.226;2023-01-05T08:41:21;96034.06;;;13.34;47.79
55315;BME280;41619;42.816;23.226;2023-01-05T08:43:52;96034.47;;;13.14;48.41
55315;BME280;41619;42.816;23.226;2023-01-05T08:46:19;96027.56;;;13.00;48.66
55315;BME280;41619;42.816;23.226;2023-01-05T08:48:47;96023.38;;;12.84;48.48
55315;BME280;41619;42.816;23.226;2023-01-05T08:51:13;96020.44;;;12.73;48.24
55315;BME280;41619;42.816;23.226;2023-01-05T08:53:38;96010.03;;;12.63;48.74
55315;BME280;41619;42.816;23.226;2023-01-05T08:56:04;96006.06;;;12.60;48.49
55315;BME280;41619;42.816;23.226;2023-01-05T08:58:29;95997.81;;;12.60;48.96
55315;BME280;41619;42.816;23.226;2023-01-05T09:00:55;95987.53;;;12.54;48.68
55315;BME280;41619;42.816;23.226;2023-01-05T09:03:20;95991.66;;;12.44;48.42
55315;BME280;41619;42.816;23.226;2023-01-05T09:05:46;95988.41;;;12.38;48.53
55315;BME280;41619;42.816;23.226;2023-01-05T09:08:11;95972.69;;;12.35;48.69
55315;BME280;41619;42.816;23.226;2023-01-05T09:10:36;95973.47;;;12.36;48.44
55315;BME280;41619;42.816;23.226;2023-01-05T09:13:02;95964.38;;;12.32;48.75
55315;BME280;41619;42.816;23.226;2023-01-05T09:15:27;95962.28;;;12.25;48.62
55315;BME280;41619;42.816;23.226;2023-01-05T09:17:53;95947.34;;;12.23;48.97
55315;BME280;41619;42.816;23.226;2023-01-05T09:20:18;95944.22;;;12.24;49.16
55315;BME280;41619;42.816;23.226;2023-01-05T09:22:43;95946.59;;;12.26;49.25
55315;BME280;41619;42.816;23.226;2023-01-05T09:25:09;95947.06;;;12.28;48.79
55315;BME280;41619;42.816;23.226;2023-01-05T09:27:34;95934.47;;;12.27;48.79
55315;BME280;41619;42.816;23.226;2023-01-05T09:30:01;95931.28;;;12.25;48.94
55315;BME280;41619;42.816;23.226;2023-01-05T09:32:26;95924.66;;;12.26;49.20
55315;BME280;41619;42.816;23.226;2023-01-05T09:34:52;95918.47;;;12.29;49.37
55315;BME280;41619;42.816;23.226;2023-01-05T09:37:17;95906.75;;;12.32;49.49
55315;BME280;41619;42.816;23.226;2023-01-05T09:39:43;95889.91;;;12.33;49.07
55315;BME280;41619;42.816;23.226;2023-01-05T09:42:13;95902.22;;;12.43;49.29
55315;BME280;41619;42.816;23.226;2023-01-05T09:44:40;95899.66;;;12.54;49.17
55315;BME280;41619;42.816;23.226;2023-01-05T09:49:49;95886.69;;;12.51;49.18
55315;BME280;41619;42.816;23.226;2023-01-05T09:52:18;95889.84;;;12.53;49.50
55315;BME280;41619;42.816;23.226;2023-01-05T09:54:44;95875.69;;;12.51;49.44
55315;BME280;41619;42.816;23.226;2023-01-05T09:57:30;95873.78;;;12.55;49.78
55315;BME280;41619;42.816;23.226;2023-01-05T09:59:59;95869.34;;;12.69;50.16
55315;BME280;41619;42.816;23.226;2023-01-05T10:02:33;95860.47;;;13.06;50.29
55315;BME280;41619;42.816;23.226;2023-01-05T10:05:04;95866.69;;;13.59;49.70
55315;BME280;41619;42.816;23.226;2023-01-05T10:07:43;95858.94;;;14.06;48.25
55315;BME280;41619;42.816;23.226;2023-01-05T10:12:51;95859.50;;;13.85;47.49
55315;BME280;41619;42.816;23.226;2023-01-05T10:15:44;95861.00;;;13.45;47.77
55315;BME280;41619;42.816;23.226;2023-01-05T10:18:17;95850.38;;;13.17;48.36
55315;BME280;41619;42.816;23.226;2023-01-05T10:21:15;95843.75;;;12.92;48.56
55315;BME280;41619;42.816;23.226;2023-01-05T10:24:09;95850.16;;;12.73;48.94
55315;BME280;41619;42.816;23.226;2023-01-05T10:29:12;95837.00;;;12.59;49.16
55315;BME280;41619;42.816;23.226;2023-01-05T10:34:22;95819.22;;;12.50;49.34
55315;BME280;41619;42.816;23.226;2023-01-05T10:37:07;95815.25;;;12.47;49.24
55315;BME280;41619;42.816;23.226;2023-01-05T10:45:08;95802.25;;;12.44;49.67
55315;BME280;41619;42.816;23.226;2023-01-05T10:47:36;95800.66;;;12.43;49.56
55315;BME280;41619;42.816;23.226;2023-01-05T10:50:19;95791.25;;;12.44;49.86
55315;BME280;41619;42.816;23.226;2023-01-05T10:52:48;95788.59;;;12.48;49.63
55315;BME280;41619;42.816;23.226;2023-01-05T10:55:16;95782.44;;;12.58;50.15
55315;BME280;41619;42.816;23.226;2023-01-05T10:57:43;95787.50;;;12.82;50.39
55315;BME280;41619;42.816;23.226;2023-01-05T11:00:16;95784.66;;;13.01;51.36
55315;BME280;41619;42.816;23.226;2023-01-05T11:05:32;95777.91;;;14.44;51.64
55315;BME280;41619;42.816;23.226;2023-01-05T11:08:04;95783.06;;;15.11;49.74
55315;BME280;41619;42.816;23.226;2023-01-05T11:10:33;95772.75;;;16.09;48.71
55315;BME280;41619;42.816;23.226;2023-01-05T11:13:00;95767.06;;;17.26;47.26
55315;BME280;41619;42.816;23.226;2023-01-05T11:15:28;95763.13;;;18.08;45.05
55315;BME280;41619;42.816;23.226;2023-01-05T11:17:55;95756.63;;;18.32;43.58
55315;BME280;41619;42.816;23.226;2023-01-05T11:20:20;95742.09;;;18.66;42.58
55315;BME280;41619;42.816;23.226;2023-01-05T11:22:46;95736.38;;;18.84;41.09
55315;BME280;41619;42.816;23.226;2023-01-05T11:25:26;95746.53;;;18.08;41.03
55315;BME280;41619;42.816;23.226;2023-01-05T11:28:05;95751.19;;;17.48;40.88
55315;BME280;41619;42.816;23.226;2023-01-05T11:30:33;95752.59;;;16.94;41.79
55315;BME280;41619;42.816;23.226;2023-01-05T11:32:59;95747.88;;;16.48;42.36
55315;BME280;41619;42.816;23.226;2023-01-05T11:35:32;95731.31;;;15.88;43.23
55315;BME280;41619;42.816;23.226;2023-01-05T11:38:00;95741.00;;;15.39;43.73
55315;BME280;41619;42.816;23.226;2023-01-05T11:40:31;95738.94;;;15.11;44.11
55315;BME280;41619;42.816;23.226;2023-01-05T11:42:58;95736.13;;;14.97;44.58
55315;BME280;41619;42.816;23.226;2023-01-05T11:45:39;95726.59;;;14.83;44.80
55315;BME280;41619;42.816;23.226;2023-01-05T11:48:16;95726.56;;;14.76;44.86
55315;BME280;41619;42.816;23.226;2023-01-05T11:50:55;95722.97;;;14.65;44.85
55315;BME280;41619;42.816;23.226;2023-01-05T11:58:44;95722.63;;;14.19;45.35
55315;BME280;41619;42.816;23.226;2023-01-05T12:09:31;95720.38;;;13.84;46.13
55315;BME280;41619;42.816;23.226;2023-01-05T12:28:17;95658.25;;;12.68;47.76
55315;BME280;41619;42.816;23.226;2023-01-05T12:31:00;95660.81;;;12.54;47.98
55315;BME280;41619;42.816;23.226;2023-01-05T12:51:17;95663.28;;;12.32;48.49
55315;BME280;41619;42.816;23.226;2023-01-05T12:54:01;95659.94;;;12.46;48.68
55315;BME280;41619;42.816;23.226;2023-01-05T12:56:34;95669.91;;;12.61;48.14
55315;BME280;41619;42.816;23.226;2023-01-05T12:59:20;95662.59;;;12.69;47.66
55315;BME280;41619;42.816;23.226;2023-01-05T13:04:39;95666.00;;;12.92;47.64
55315;BME280;41619;42.816;23.226;2023-01-05T13:10:21;95665.13;;;13.18;46.72
55315;BME280;41619;42.816;23.226;2023-01-05T13:12:51;95660.13;;;13.27;47.14
55315;BME280;41619;42.816;23.226;2023-01-05T13:15:27;95665.28;;;13.32;46.60
55315;BME280;41619;42.816;23.226;2023-01-05T13:17:56;95655.97;;;13.44;46.75
55315;BME280;41619;42.816;23.226;2023-01-05T13:20:45;95655.69;;;13.56;46.59
55315;BME280;41619;42.816;23.226;2023-01-05T13:23:16;95655.75;;;13.63;46.39
55315;BME280;41619;42.816;23.226;2023-01-05T13:25:49;95664.38;;;13.62;46.35
55315;BME280;41619;42.816;23.226;2023-01-05T13:28:21;95642.31;;;13.55;46.67
55315;BME280;41619;42.816;23.226;2023-01-05T13:30:58;95638.34;;;13.49;46.58
55315;BME280;41619;42.816;23.226;2023-01-05T13:33:36;95641.88;;;13.49;46.65
55315;BME280;41619;42.816;23.226;2023-01-05T13:39:05;95638.09;;;13.68;46.51
55315;BME280;41619;42.816;23.226;2023-01-05T13:49:35;95620.00;;;13.63;46.31
55315;BME280;41619;42.816;23.226;2023-01-05T13:52:22;95619.22;;;13.63;46.72
55315;BME280;41619;42.816;23.226;2023-01-05T13:54:55;95620.38;;;13.58;46.69
55315;BME280;41619;42.816;23.226;2023-01-05T13:57:27;95619.09;;;13.49;46.61
55315;BME280;41619;42.816;23.226;2023-01-05T13:59:59;95613.91;;;13.40;46.96
55315;BME280;41619;42.816;23.226;2023-01-05T14:02:55;95613.44;;;13.31;46.93
55315;BME280;41619;42.816;23.226;2023-01-05T14:06:01;95613.69;;;13.19;47.20
55315;BME280;41619;42.816;23.226;2023-01-05T14:08:29;95615.53;;;13.08;47.61
55315;BME280;41619;42.816;23.226;2023-01-05T14:13:44;95609.03;;;12.86;47.91
55315;BME280;41619;42.816;23.226;2023-01-05T14:27:09;95609.09;;;11.99;49.27
55315;BME280;41619;42.816;23.226;2023-01-05T14:34:48;95612.94;;;11.45;50.40
55315;BME280;41619;42.816;23.226;2023-01-05T14:39:47;95617.47;;;11.11;51.07
55315;BME280;41619;42.816;23.226;2023-01-05T14:44:49;95621.28;;;10.84;51.54
55315;BME280;41619;42.816;23.226;2023-01-05T14:47:30;95625.31;;;10.71;51.55
55315;BME280;41619;42.816;23.226;2023-01-05T14:49:57;95623.44;;;10.55;51.95
55315;BME280;41619;42.816;23.226;2023-01-05T14:52:57;95632.19;;;10.42;52.55
55315;BME280;41619;42.816;23.226;2023-01-05T14:57:56;95636.22;;;10.13;52.96
55315;BME280;41619;42.816;23.226;2023-01-05T15:00:42;95634.66;;;9.96;53.39
55315;BME280;41619;42.816;23.226;2023-01-05T15:03:20;95642.19;;;9.83;53.67
55315;BME280;41619;42.816;23.226;2023-01-05T15:05:55;95644.59;;;9.69;53.68
55315;BME280;41619;42.816;23.226;2023-01-05T15:19:46;95642.66;;;9.06;54.75
55315;BME280;41619;42.816;23.226;2023-01-05T15:24:53;95649.56;;;8.88;54.93
55315;BME280;41619;42.816;23.226;2023-01-05T15:27:51;95646.91;;;8.76;55.00
55315;BME280;41619;42.816;23.226;2023-01-05T15:30:23;95651.28;;;8.65;55.12
55315;BME280;41619;42.816;23.226;2023-01-05T15:33:03;95636.53;;;8.54;55.19
55315;BME280;41619;42.816;23.226;2023-01-05T15:35:39;95632.38;;;8.44;55.79
55315;BME280;41619;42.816;23.226;2023-01-05T15:38:19;95648.09;;;8.35;55.62
55315;BME280;41619;42.816;23.226;2023-01-05T15:40:46;95645.47;;;8.26;56.05
55315;BME280;41619;42.816;23.226;2023-01-05T15:43:14;95649.13;;;8.18;56.39